Hachinohe Air Base, Japan

11:59 PM JST on September 22, 2014 (GMT +0900)
Aomori | Change Station
CLOSE
Current Station
Airport
Location: Aomori Airport,
Elevation: 659 ft
Nearby Weather Stations

Elev 659 ft 40.73 °N, 140.69 °E | Updated 2 hours ago

Light Rain Showers
Light Showers Rain
59 °F
Feels Like 59 °F
N
8
Wind Variable Wind from SW

Today
High -- | Low -- °F
--% Chance of Precip.
Yesterday
High -- | Low -- °F
Precip. -- in
5:21 AM 5:32 PM
Waning Crescent, 3% visible
Pressure 30.06 in
Visibility 6.2 miles
Clouds Few 2500 ft
Mostly Cloudy 3500 ft
Dew Point 55 °F
Humidity 88%
Rainfall 0.00 in
Snow Depth Not available.
UV 0 out of 12
Pollen Not available.
Air Quality Not available.
Flu Activity Not available.
METAR RJSA 221200Z 22007KT 9999 -SHRA FEW025 BKN035 15/13 Q1018

More Conditions Fewer Conditions

Pressure 30.06 in
Visibility 6.2 miles
Clouds Few 2500 ft
Mostly Cloudy 3500 ft
Dew Point 55 °F
Humidity 88%
Rainfall 0.00 in
Snow Depth Not available.
UV 0 out of 12
Pollen Not available.
Air Quality Not available.
Flu Activity Not available.
METAR RJSA 221200Z 22007KT 9999 -SHRA FEW025 BKN035 15/13 Q1018

More Conditions Fewer Conditions

10-Day Weather Forecast

Almanac

Astronomy

Sep. 22, 2014 Rise Set
Actual Time 5:21 AM JST 5:32 PM JST
Civil Twilight 4:53 AM JST 5:59 PM JST
Nautical Twilight 4:21 AM JST 6:31 PM JST
Astronomical Twilight 3:49 AM JST 7:03 PM JST
Moon 3:13 AM JST 4:20 PM JST
Length of Visible Light 13h 05m
Length of Day
12h 11m
Tomorrow will be 2m 40s shorter.
Waning Crescent, 3% of the Moon is Illuminated
Today
Waning Crescent
Sep 24
New
Oct 1
First Quarter
Oct 8
Full
Oct 15
Last Quarter

Today's Extremes

Country Highs Country Lows

Community

WunderPhotos

Upload Photos

1,755,459 photos uploaded!

WunderBlogs® & News

Nearby

Snow Depth

Not available.

Earthquake Activity

City Distance Mag. Time & Date
No recent earthquake activity has been reported nearby.
Minimum magnitude displayed is 2.5.

Coastal Water Temperatures

Place Temperature
No Stations Reporting

Nearby Weather Stations